createdAt,value
2022-09-29T00:02:22.610Z,16.30
2022-09-29T00:04:49.941Z,17.20
2022-09-29T00:07:16.515Z,17.42
2022-09-29T00:09:43.794Z,18.40
2022-09-29T00:12:10.512Z,18.33
2022-09-29T00:14:37.767Z,17.45
2022-09-29T00:17:04.830Z,16.63
2022-09-29T00:19:33.782Z,17.52
2022-09-29T00:22:00.503Z,16.10
2022-09-29T00:24:28.181Z,16.90
2022-09-29T00:26:54.815Z,17.52
2022-09-29T00:29:22.160Z,15.82
2022-09-29T00:31:48.779Z,17.35
2022-09-29T00:34:16.169Z,16.60
2022-09-29T00:36:42.783Z,16.70
2022-09-29T00:39:10.179Z,16.63
2022-09-29T00:41:38.348Z,16.95
2022-09-29T00:44:14.601Z,16.10
2022-09-29T00:46:50.614Z,16.17
2022-09-29T00:49:29.456Z,17.13
2022-09-29T00:52:07.557Z,16.10
2022-09-29T00:54:41.872Z,16.77
2022-09-29T00:57:10.029Z,17.23
2022-09-29T01:00:04.290Z,16.70
2022-09-29T01:02:34.980Z,17.40
2022-09-29T01:05:06.646Z,17.08
2022-09-29T01:07:33.875Z,18.10
2022-09-29T01:10:01.498Z,18.17
2022-09-29T01:12:28.117Z,18.35
2022-09-29T01:14:56.205Z,17.80
2022-09-29T01:17:23.431Z,17.50
2022-09-29T01:20:13.505Z,17.50
2022-09-29T01:23:13.420Z,16.67
2022-09-29T01:25:45.905Z,16.42
2022-09-29T01:28:57.761Z,17.13
2022-09-29T01:31:35.047Z,16.17
2022-09-29T01:34:46.642Z,16.08
2022-09-29T01:37:27.810Z,15.82
2022-09-29T01:40:04.291Z,15.55
2022-09-29T01:42:39.589Z,15.15
2022-09-29T01:45:38.443Z,15.50
2022-09-29T01:48:21.770Z,15.98
2022-09-29T01:53:26.707Z,16.63
2022-09-29T01:55:58.475Z,16.77
2022-09-29T01:58:54.458Z,16.73
2022-09-29T02:01:24.224Z,16.45
2022-09-29T02:04:00.607Z,16.10
2022-09-29T02:06:32.228Z,16.05
2022-09-29T02:09:02.656Z,15.38
2022-09-29T02:11:31.857Z,15.15
2022-09-29T02:14:11.082Z,15.10
2022-09-29T02:16:43.335Z,15.77
2022-09-29T02:19:29.741Z,16.27
2022-09-29T02:21:56.413Z,14.52
2022-09-29T02:24:24.506Z,14.95
2022-09-29T02:26:51.975Z,13.77
2022-09-29T02:29:20.592Z,16.52
2022-09-29T02:31:48.040Z,16.17
2022-09-29T02:34:19.220Z,17.00
2022-09-29T02:37:21.430Z,17.05
2022-09-29T02:40:15.351Z,16.30
2022-09-29T02:43:11.031Z,16.30
2022-09-29T02:46:01.045Z,16.27
2022-09-29T02:48:44.658Z,15.65
2022-09-29T02:51:11.218Z,14.43
2022-09-29T02:53:58.970Z,15.23
2022-09-29T02:56:48.559Z,14.43
2022-09-29T02:59:25.562Z,14.65
2022-09-29T03:01:54.431Z,14.40
2022-09-29T03:04:24.543Z,14.75
2022-09-29T03:06:52.235Z,14.80
2022-09-29T03:09:19.740Z,15.60
2022-09-29T03:11:47.099Z,15.13
2022-09-29T03:14:14.415Z,15.50
2022-09-29T03:16:41.116Z,14.82
2022-09-29T03:19:08.435Z,15.27
2022-09-29T03:21:35.440Z,17.13
2022-09-29T03:24:02.827Z,15.93
2022-09-29T03:26:30.078Z,17.33
2022-09-29T03:28:57.758Z,15.43
2022-09-29T03:31:24.463Z,16.55
2022-09-29T03:33:51.817Z,16.80
2022-09-29T03:36:18.405Z,16.05
2022-09-29T03:38:47.328Z,16.80
2022-09-29T03:41:14.121Z,17.55
2022-09-29T03:43:41.673Z,16.98
2022-09-29T03:46:08.744Z,17.88
2022-09-29T03:48:35.522Z,18.83
2022-09-29T03:51:03.983Z,18.92
2022-09-29T03:53:30.985Z,18.25
2022-09-29T03:55:58.261Z,18.27
2022-09-29T03:58:25.052Z,18.23
2022-09-29T04:00:52.551Z,18.45
2022-09-29T04:03:20.365Z,17.98
2022-09-29T04:05:49.120Z,19.25
2022-09-29T04:08:16.506Z,18.73
2022-09-29T04:10:45.845Z,18.00
2022-09-29T04:13:15.472Z,20.00
2022-09-29T04:15:45.109Z,19.02
2022-09-29T04:18:11.734Z,19.83
2022-09-29T04:20:39.689Z,19.35
2022-09-29T04:23:06.635Z,19.17
2022-09-29T04:25:34.214Z,18.73
2022-09-29T04:28:01.111Z,19.48
2022-09-29T04:30:28.117Z,19.48
2022-09-29T04:32:54.894Z,21.00
2022-09-29T04:35:22.134Z,20.60
2022-09-29T04:37:48.744Z,21.08
2022-09-29T04:40:17.210Z,21.38
2022-09-29T04:42:43.904Z,19.10
2022-09-29T04:45:11.035Z,19.90
2022-09-29T04:47:37.662Z,20.50
2022-09-29T04:50:05.042Z,20.75
2022-09-29T04:52:31.646Z,21.90
2022-09-29T04:54:58.530Z,23.95
2022-09-29T04:57:25.152Z,23.10
2022-09-29T04:59:52.433Z,23.45
2022-09-29T05:02:19.301Z,22.77
2022-09-29T05:04:47.872Z,21.55
2022-09-29T05:07:15.109Z,20.73
2022-09-29T05:09:42.056Z,21.88
2022-09-29T05:12:09.041Z,21.67
2022-09-29T05:14:36.057Z,22.48
2022-09-29T05:17:02.708Z,22.27
2022-09-29T05:19:32.345Z,22.17
2022-09-29T05:21:59.552Z,21.45
2022-09-29T05:24:27.620Z,20.85
2022-09-29T05:26:58.273Z,18.23
2022-09-29T05:29:26.251Z,19.27
2022-09-29T05:31:53.135Z,18.33
2022-09-29T05:34:20.609Z,19.00
2022-09-29T05:36:47.419Z,19.70
2022-09-29T05:39:14.793Z,18.67
2022-09-29T05:41:41.545Z,18.58
2022-09-29T05:44:08.791Z,19.25
2022-09-29T05:46:35.449Z,20.38
2022-09-29T05:49:02.789Z,20.35
2022-09-29T05:51:29.381Z,20.98
2022-09-29T05:53:56.662Z,21.67
2022-09-29T05:56:25.989Z,21.02
2022-09-29T05:58:53.894Z,21.50
2022-09-29T06:01:25.917Z,22.88
2022-09-29T06:03:57.079Z,25.10
2022-09-29T06:06:26.478Z,26.63
2022-09-29T06:11:39.899Z,27.15
2022-09-29T06:14:07.147Z,27.85
2022-09-29T06:16:34.497Z,30.90
2022-09-29T06:19:02.843Z,29.42
2022-09-29T06:21:30.527Z,30.75
2022-09-29T06:23:58.676Z,28.58
2022-09-29T06:26:27.488Z,29.10
2022-09-29T06:28:55.887Z,28.92
2022-09-29T06:31:24.980Z,26.83
2022-09-29T06:33:52.724Z,24.13
2022-09-29T06:36:42.983Z,25.45
2022-09-29T06:39:12.852Z,25.23
2022-09-29T06:41:39.975Z,24.42
2022-09-29T06:44:09.249Z,23.38
2022-09-29T06:46:36.131Z,22.35
2022-09-29T06:49:03.484Z,28.17
2022-09-29T06:51:42.700Z,25.13
2022-09-29T06:54:23.614Z,24.60
2022-09-29T06:56:50.974Z,25.70
2022-09-29T06:59:18.651Z,24.65
2022-09-29T07:01:49.516Z,24.67
2022-09-29T07:04:17.855Z,24.40
2022-09-29T07:06:45.689Z,25.00
2022-09-29T07:09:16.553Z,26.92
2022-09-29T07:11:46.414Z,24.15
2022-09-29T07:14:15.372Z,24.05
2022-09-29T07:16:42.684Z,23.15
2022-09-29T07:19:10.628Z,22.83
2022-09-29T07:21:37.217Z,22.00
2022-09-29T07:24:04.610Z,21.17
2022-09-29T07:26:31.300Z,22.02
2022-09-29T07:28:58.338Z,22.00
2022-09-29T07:31:25.700Z,21.52
2022-09-29T07:33:52.968Z,20.83
2022-09-29T07:36:21.494Z,20.48
2022-09-29T07:38:49.832Z,19.70
2022-09-29T07:41:19.019Z,19.40
2022-09-29T07:43:45.706Z,18.73
2022-09-29T07:46:13.194Z,20.38
2022-09-29T07:48:41.028Z,20.35
2022-09-29T07:51:12.608Z,21.05
2022-09-29T07:53:40.151Z,19.52
2022-09-29T07:56:09.462Z,19.65
2022-09-29T07:58:37.787Z,20.70
2022-09-29T08:01:10.179Z,19.42
2022-09-29T08:03:41.584Z,18.23
2022-09-29T08:06:09.500Z,17.73
2022-09-29T08:08:44.279Z,17.80
2022-09-29T08:11:29.514Z,17.05
2022-09-29T08:13:58.762Z,15.68
2022-09-29T08:16:25.781Z,15.77
2022-09-29T08:18:53.197Z,15.30
2022-09-29T08:21:19.914Z,14.75
2022-09-29T08:23:47.373Z,15.25
2022-09-29T08:26:23.873Z,17.15
2022-09-29T08:29:06.485Z,17.50
2022-09-29T08:31:34.467Z,14.10
2022-09-29T08:34:01.829Z,14.60
2022-09-29T08:36:29.308Z,13.73
2022-09-29T08:38:57.763Z,15.00
2022-09-29T08:41:55.192Z,14.85
2022-09-29T08:44:47.910Z,13.00
2022-09-29T08:47:42.288Z,12.07
2022-09-29T08:50:22.845Z,11.57
2022-09-29T08:52:55.554Z,12.95
2022-09-29T08:57:58.577Z,12.07
2022-09-29T09:00:52.419Z,12.10
2022-09-29T09:03:41.067Z,11.60
2022-09-29T09:06:26.345Z,11.18
2022-09-29T09:09:17.443Z,10.40
2022-09-29T09:11:48.263Z,10.95
2022-09-29T09:14:24.139Z,11.05
2022-09-29T09:16:53.749Z,11.23
2022-09-29T09:20:20.254Z,12.00
2022-09-29T09:22:56.827Z,9.75
2022-09-29T09:25:36.176Z,10.98
2022-09-29T09:28:36.448Z,11.50
2022-09-29T09:32:02.183Z,10.70
2022-09-29T09:34:43.617Z,10.77
2022-09-29T09:37:20.678Z,10.52
2022-09-29T09:39:52.432Z,11.63
2022-09-29T09:42:24.896Z,9.45
2022-09-29T09:45:28.244Z,10.55
2022-09-29T09:48:10.301Z,10.40
2022-09-29T09:50:43.188Z,10.13
2022-09-29T09:53:19.798Z,9.57
2022-09-29T09:56:00.257Z,9.18
2022-09-29T09:58:42.357Z,9.32
2022-09-29T10:01:12.615Z,9.33
2022-09-29T10:03:39.365Z,10.07
2022-09-29T10:06:08.781Z,10.25
2022-09-29T10:08:39.728Z,9.63
2022-09-29T10:11:28.266Z,7.85
2022-09-29T10:14:09.630Z,8.45
2022-09-29T10:16:50.931Z,9.00
2022-09-29T10:19:45.262Z,9.13
2022-09-29T10:22:14.451Z,9.38
2022-09-29T10:24:41.801Z,8.95
2022-09-29T10:27:10.706Z,7.90
2022-09-29T10:29:37.771Z,8.05
2022-09-29T10:32:13.287Z,7.93
2022-09-29T10:34:54.721Z,8.18
2022-09-29T10:37:35.267Z,8.20
2022-09-29T10:40:07.910Z,7.55
2022-09-29T10:42:40.270Z,8.10
2022-09-29T10:45:22.611Z,8.20
2022-09-29T10:47:58.240Z,7.33
2022-09-29T10:50:50.730Z,7.60
2022-09-29T10:53:35.623Z,6.75
2022-09-29T10:56:17.538Z,6.35
2022-09-29T10:59:00.478Z,6.22
2022-09-29T11:01:33.064Z,6.22
2022-09-29T11:04:03.980Z,7.78
2022-09-29T11:06:32.637Z,6.88
2022-09-29T11:09:04.118Z,6.60
2022-09-29T11:11:40.061Z,6.97
2022-09-29T11:14:23.321Z,6.32
2022-09-29T11:19:22.537Z,7.05
2022-09-29T11:22:25.185Z,6.45
2022-09-29T11:25:20.689Z,5.68
2022-09-29T11:28:05.642Z,4.90
2022-09-29T11:30:47.569Z,4.95
2022-09-29T11:33:37.769Z,4.70
2022-09-29T11:36:32.993Z,4.75
2022-09-29T11:39:14.985Z,5.10
2022-09-29T11:42:09.734Z,4.72
2022-09-29T11:44:52.490Z,4.78
2022-09-29T11:47:44.942Z,5.15
2022-09-29T11:50:35.849Z,4.45
2022-09-29T11:53:40.370Z,4.20
2022-09-29T11:56:21.599Z,4.32
2022-09-29T11:59:22.456Z,4.38
2022-09-29T12:01:55.392Z,4.38
2022-09-29T12:05:05.531Z,4.68
2022-09-29T12:07:42.443Z,4.32
2022-09-29T12:10:39.290Z,4.38
2022-09-29T12:13:30.131Z,4.88
2022-09-29T12:16:04.481Z,3.95
2022-09-29T12:18:43.003Z,4.28
2022-09-29T12:21:15.625Z,3.70
2022-09-29T12:23:46.497Z,3.00
2022-09-29T12:26:16.027Z,3.42
2022-09-29T12:28:49.160Z,3.25
2022-09-29T12:31:28.383Z,2.50
2022-09-29T12:34:00.731Z,4.22
2022-09-29T12:36:53.828Z,3.63
2022-09-29T12:39:59.736Z,2.35
2022-09-29T12:42:40.046Z,1.35
2022-09-29T12:45:24.973Z,2.20
2022-09-29T12:48:03.523Z,2.40
2022-09-29T12:50:41.633Z,2.85
2022-09-29T12:53:22.030Z,2.47
2022-09-29T12:55:58.998Z,1.67
2022-09-29T12:58:53.625Z,2.15
2022-09-29T13:01:27.310Z,3.13
2022-09-29T13:04:15.395Z,2.67
2022-09-29T13:07:10.954Z,1.90
2022-09-29T13:09:43.667Z,1.95
2022-09-29T13:12:29.226Z,2.35
2022-09-29T13:15:15.336Z,1.95
2022-09-29T13:18:23.572Z,2.80
2022-09-29T13:21:18.455Z,3.13
2022-09-29T13:24:18.091Z,3.22
2022-09-29T13:27:02.212Z,2.80
2022-09-29T13:29:31.407Z,2.95
2022-09-29T13:32:01.897Z,2.92
2022-09-29T13:34:35.627Z,2.20
2022-09-29T13:37:15.060Z,2.50
2022-09-29T13:39:45.615Z,2.08
2022-09-29T13:42:34.191Z,2.40
2022-09-29T13:45:35.036Z,2.25
2022-09-29T13:48:23.820Z,2.60
2022-09-29T13:51:01.748Z,1.80
2022-09-29T13:53:37.381Z,1.80
2022-09-29T13:56:04.496Z,1.88
2022-09-29T13:58:35.499Z,2.28
2022-09-29T14:01:06.633Z,2.42
2022-09-29T14:03:42.133Z,1.90
2022-09-29T14:06:40.615Z,2.25
2022-09-29T14:09:19.583Z,2.20
2022-09-29T14:11:51.845Z,2.28
2022-09-29T14:14:21.349Z,2.20
2022-09-29T14:17:17.481Z,2.17
2022-09-29T14:20:19.285Z,1.90
2022-09-29T14:22:46.031Z,2.03
2022-09-29T14:25:15.154Z,2.15
2022-09-29T14:27:58.642Z,2.03
2022-09-29T14:30:32.745Z,2.10
2022-09-29T14:33:06.662Z,2.20
2022-09-29T14:35:39.733Z,1.92
2022-09-29T14:38:20.863Z,2.15
2022-09-29T14:41:17.959Z,2.03
2022-09-29T14:43:49.362Z,1.90
2022-09-29T14:46:57.874Z,2.28
2022-09-29T14:50:19.427Z,2.15
2022-09-29T14:53:06.370Z,1.75
2022-09-29T14:56:01.787Z,2.05
2022-09-29T14:58:35.524Z,2.15
2022-09-29T15:01:09.651Z,2.38
2022-09-29T15:03:47.283Z,2.10
2022-09-29T15:06:24.350Z,2.03
2022-09-29T15:09:13.687Z,2.70
2022-09-29T15:11:49.150Z,2.70
2022-09-29T15:14:26.487Z,2.85
2022-09-29T15:17:34.709Z,2.75
2022-09-29T15:20:16.491Z,2.70
2022-09-29T15:22:58.788Z,2.10
2022-09-29T15:25:39.292Z,2.80
2022-09-29T15:28:29.876Z,3.13
2022-09-29T15:31:03.055Z,10.00
2022-09-29T15:33:35.604Z,6.55
2022-09-29T15:36:24.220Z,5.65
2022-09-29T15:39:00.412Z,3.40
2022-09-29T15:41:31.486Z,3.25
2022-09-29T15:44:13.623Z,2.90
2022-09-29T15:46:48.730Z,2.47
2022-09-29T15:49:21.182Z,3.20
2022-09-29T15:52:04.068Z,2.63
2022-09-29T15:57:46.551Z,2.83
2022-09-29T16:00:22.325Z,2.40
2022-09-29T16:03:11.686Z,2.10
2022-09-29T16:05:45.215Z,2.47
2022-09-29T16:08:25.369Z,2.78
2022-09-29T16:10:55.424Z,3.10
2022-09-29T16:13:28.265Z,3.90
2022-09-29T16:15:59.061Z,5.38
2022-09-29T16:18:52.846Z,3.60
2022-09-29T16:21:23.047Z,3.50
2022-09-29T16:23:50.958Z,3.83
2022-09-29T16:26:34.938Z,4.45
2022-09-29T16:29:04.199Z,4.35
2022-09-29T16:31:33.094Z,4.00
2022-09-29T16:34:01.046Z,4.10
2022-09-29T16:36:36.263Z,4.35
2022-09-29T16:39:05.123Z,4.18
2022-09-29T16:41:38.343Z,4.38
2022-09-29T16:44:12.597Z,4.10
2022-09-29T16:47:01.009Z,4.30
2022-09-29T16:49:36.208Z,3.65
2022-09-29T16:52:13.968Z,4.18
2022-09-29T16:54:43.769Z,3.60
2022-09-29T16:57:23.168Z,4.85
2022-09-29T16:59:53.863Z,5.70
2022-09-29T17:02:22.819Z,5.00
2022-09-29T17:04:54.214Z,5.53
2022-09-29T17:07:24.372Z,4.60
2022-09-29T17:09:56.786Z,4.40
2022-09-29T17:12:26.985Z,4.32
2022-09-29T17:14:53.757Z,4.38
2022-09-29T17:17:26.105Z,4.68
2022-09-29T17:19:56.326Z,6.03
2022-09-29T17:22:31.417Z,6.25
2022-09-29T17:24:58.934Z,6.35
2022-09-29T17:27:45.645Z,4.75
2022-09-29T17:30:17.646Z,5.93
2022-09-29T17:32:46.981Z,4.18
2022-09-29T17:35:15.367Z,5.75
2022-09-29T17:37:44.440Z,5.90
2022-09-29T17:40:22.267Z,6.53
2022-09-29T17:42:49.419Z,5.60
2022-09-29T17:45:18.374Z,6.85
2022-09-29T17:47:47.224Z,6.80
2022-09-29T17:50:20.203Z,7.03
2022-09-29T17:52:47.468Z,7.95
2022-09-29T17:55:14.420Z,8.48
2022-09-29T17:57:43.221Z,8.25
2022-09-29T18:16:50.589Z,10.73
2022-09-29T18:36:43.250Z,10.38
2022-09-29T18:39:10.273Z,10.07
2022-09-29T18:45:58.896Z,9.50
2022-09-29T18:48:26.235Z,10.35
2022-09-29T18:50:54.975Z,9.35
2022-09-29T18:53:22.849Z,10.05
2022-09-29T18:56:08.075Z,8.57
2022-09-29T18:58:36.470Z,8.93
2022-09-29T19:01:03.194Z,8.40
2022-09-29T19:47:19.406Z,10.93
2022-09-29T19:50:16.494Z,11.10
2022-09-29T19:53:02.493Z,11.50
2022-09-29T20:00:34.342Z,11.20
2022-09-29T20:04:42.054Z,18.50
2022-09-29T20:07:19.956Z,24.83
2022-09-29T20:09:49.387Z,24.95
2022-09-29T20:12:20.940Z,21.83
2022-09-29T20:15:03.938Z,18.50
2022-09-29T20:17:48.114Z,16.98
2022-09-29T20:21:16.479Z,17.02
2022-09-29T20:39:04.863Z,9.85
2022-09-29T20:41:34.399Z,9.80
2022-09-29T20:44:02.218Z,9.98
2022-09-29T20:46:30.262Z,10.43
2022-09-29T20:48:59.379Z,10.85
2022-09-29T20:51:26.666Z,11.05
2022-09-29T21:05:39.343Z,17.73
2022-09-29T21:08:07.363Z,17.40
2022-09-29T21:10:34.676Z,19.88
2022-09-29T21:13:04.933Z,19.00
2022-09-29T21:15:41.423Z,18.98
2022-09-29T21:18:11.798Z,18.05
2022-09-29T21:20:39.506Z,19.40
2022-09-29T21:23:07.047Z,30.38
2022-09-29T21:25:33.855Z,26.15
2022-09-29T21:28:01.986Z,25.48
2022-09-29T21:30:28.676Z,26.10
2022-09-29T21:32:55.714Z,26.65
2022-09-29T21:35:22.339Z,25.35
2022-09-29T21:37:49.631Z,23.15
2022-09-29T21:40:16.257Z,25.20
2022-09-29T21:42:43.557Z,31.25
2022-09-29T21:45:10.916Z,33.47
2022-09-29T21:47:56.879Z,33.15
2022-09-29T21:50:26.049Z,29.20
2022-09-29T21:52:55.277Z,25.23
2022-09-29T21:55:22.147Z,22.63
2022-09-29T21:57:49.485Z,21.80
2022-09-29T22:00:17.535Z,18.80
2022-09-29T22:02:45.036Z,17.65
2022-09-29T22:05:12.171Z,15.75
2022-09-29T22:07:39.965Z,14.85
2022-09-29T22:10:12.032Z,14.70
2022-09-29T22:12:42.316Z,13.25
2022-09-29T22:15:09.954Z,13.43
2022-09-29T22:17:38.197Z,11.60
2022-09-29T22:20:05.891Z,12.48
2022-09-29T22:22:33.495Z,10.63
2022-09-29T22:25:00.359Z,11.18
2022-09-29T22:27:27.930Z,10.38
2022-09-29T22:29:55.519Z,9.88
2022-09-29T22:32:23.781Z,10.23
2022-09-29T22:34:52.485Z,10.50
2022-09-29T22:37:19.848Z,9.38
2022-09-29T22:39:46.714Z,10.45
2022-09-29T22:42:14.178Z,9.73
2022-09-29T22:44:41.162Z,11.57
2022-09-29T22:47:08.298Z,11.38
2022-09-29T22:49:35.143Z,10.63
2022-09-29T23:08:00.864Z,11.63
2022-09-29T23:10:27.552Z,11.38
2022-09-29T23:12:55.635Z,10.80
2022-09-29T23:15:22.379Z,11.68
2022-09-29T23:17:51.533Z,12.13
2022-09-29T23:20:18.230Z,12.02
2022-09-29T23:22:45.483Z,11.25
2022-09-29T23:25:12.508Z,9.82
2022-09-29T23:27:39.776Z,11.52
2022-09-29T23:30:06.788Z,10.77
2022-09-29T23:32:34.018Z,11.07
2022-09-29T23:35:00.593Z,10.75
2022-09-29T23:37:47.821Z,10.27
2022-09-29T23:40:14.476Z,10.45
2022-09-29T23:42:41.770Z,9.75
2022-09-29T23:45:08.532Z,9.45
2022-09-29T23:47:36.241Z,9.18
2022-09-29T23:50:04.315Z,9.13
2022-09-29T23:52:31.541Z,9.25
2022-09-29T23:54:58.093Z,9.63
2022-09-29T23:57:25.397Z,9.68
2022-09-29T23:59:51.961Z,9.88
